sensor_id;sensor_type;location;lat;lon;timestamp;P1;durP1;ratioP1;P2;durP2;ratioP2
55150;SDS011;41041;43.162;20.538;2022-11-09T10:35:31;23.88;;;14.85;;
55150;SDS011;41041;43.162;20.538;2022-11-09T10:37:59;21.55;;;14.05;;
55150;SDS011;41041;43.162;20.538;2022-11-09T10:40:34;24.95;;;15.18;;
55150;SDS011;41041;43.162;20.538;2022-11-09T10:43:12;27.27;;;16.00;;
55150;SDS011;41041;43.162;20.538;2022-11-09T11:30:07;13.70;;;8.48;;
55150;SDS011;41041;43.162;20.538;2022-11-09T11:32:35;13.30;;;8.13;;
55150;SDS011;41041;43.162;20.538;2022-11-09T11:35:04;11.18;;;8.13;;
55150;SDS011;41041;43.162;20.538;2022-11-09T11:42:58;13.35;;;8.82;;
55150;SDS011;41041;43.162;20.538;2022-11-09T11:45:30;17.02;;;9.10;;
55150;SDS011;41041;43.162;20.538;2022-11-09T12:03:45;12.75;;;8.98;;
55150;SDS011;41041;43.162;20.538;2022-11-09T16:08:54;91.70;;;50.10;;
55150;SDS011;41041;43.162;20.538;2022-11-09T16:11:22;82.50;;;44.92;;
55150;SDS011;41041;43.162;20.538;2022-11-09T16:14:04;80.45;;;40.63;;
55150;SDS011;41041;43.162;20.538;2022-11-09T16:16:30;68.10;;;35.42;;
55150;SDS011;41041;43.162;20.538;2022-11-09T16:18:56;56.10;;;30.77;;
55150;SDS011;41041;43.162;20.538;2022-11-09T16:24:17;55.97;;;27.75;;
55150;SDS011;41041;43.162;20.538;2022-11-09T16:26:43;58.92;;;31.17;;
55150;SDS011;41041;43.162;20.538;2022-11-09T16:29:12;58.47;;;32.75;;
55150;SDS011;41041;43.162;20.538;2022-11-09T16:31:38;58.30;;;32.45;;
55150;SDS011;41041;43.162;20.538;2022-11-09T16:34:05;83.20;;;43.28;;
55150;SDS011;41041;43.162;20.538;2022-11-09T16:36:31;72.70;;;36.53;;
55150;SDS011;41041;43.162;20.538;2022-11-09T16:38:58;104.22;;;52.28;;
55150;SDS011;41041;43.162;20.538;2022-11-09T16:41:29;95.43;;;48.67;;
55150;SDS011;41041;43.162;20.538;2022-11-09T16:43:55;86.40;;;42.33;;
55150;SDS011;41041;43.162;20.538;2022-11-09T16:46:23;83.75;;;41.30;;
55150;SDS011;41041;43.162;20.538;2022-11-09T16:48:52;73.07;;;33.55;;
55150;SDS011;41041;43.162;20.538;2022-11-09T16:51:20;90.88;;;42.67;;
55150;SDS011;41041;43.162;20.538;2022-11-09T16:56:50;124.93;;;60.08;;
55150;SDS011;41041;43.162;20.538;2022-11-09T16:59:18;112.88;;;48.90;;
55150;SDS011;41041;43.162;20.538;2022-11-09T17:01:51;143.63;;;61.05;;
55150;SDS011;41041;43.162;20.538;2022-11-09T17:04:17;118.47;;;53.78;;
55150;SDS011;41041;43.162;20.538;2022-11-09T17:06:44;76.15;;;41.17;;
55150;SDS011;41041;43.162;20.538;2022-11-09T17:09:10;88.90;;;44.13;;
55150;SDS011;41041;43.162;20.538;2022-11-09T17:11:36;97.53;;;47.53;;
55150;SDS011;41041;43.162;20.538;2022-11-09T17:14:02;86.43;;;41.78;;
55150;SDS011;41041;43.162;20.538;2022-11-09T17:16:29;95.70;;;47.88;;
55150;SDS011;41041;43.162;20.538;2022-11-09T17:18:56;100.10;;;47.65;;
55150;SDS011;41041;43.162;20.538;2022-11-09T17:21:23;97.25;;;46.45;;
55150;SDS011;41041;43.162;20.538;2022-11-09T17:23:50;127.80;;;62.47;;
55150;SDS011;41041;43.162;20.538;2022-11-09T17:26:18;103.30;;;47.78;;
55150;SDS011;41041;43.162;20.538;2022-11-09T17:28:45;66.88;;;37.22;;
55150;SDS011;41041;43.162;20.538;2022-11-09T17:36:53;99.05;;;46.20;;
55150;SDS011;41041;43.162;20.538;2022-11-09T17:39:19;74.32;;;38.63;;
55150;SDS011;41041;43.162;20.538;2022-11-09T17:44:50;73.43;;;40.28;;
55150;SDS011;41041;43.162;20.538;2022-11-09T17:47:16;78.65;;;43.47;;
55150;SDS011;41041;43.162;20.538;2022-11-09T17:49:42;98.32;;;54.92;;
55150;SDS011;41041;43.162;20.538;2022-11-09T17:55:05;46.03;;;26.73;;
55150;SDS011;41041;43.162;20.538;2022-11-09T18:07:53;188.40;;;100.95;;
55150;SDS011;41041;43.162;20.538;2022-11-09T18:10:18;115.65;;;64.00;;
55150;SDS011;41041;43.162;20.538;2022-11-09T18:30:17;37.70;;;23.33;;
55150;SDS011;41041;43.162;20.538;2022-11-09T18:38:54;63.08;;;32.33;;
55150;SDS011;41041;43.162;20.538;2022-11-09T19:15:46;58.38;;;30.67;;
55150;SDS011;41041;43.162;20.538;2022-11-09T19:24:34;62.90;;;33.47;;
55150;SDS011;41041;43.162;20.538;2022-11-09T20:12:00;56.90;;;31.38;;
55150;SDS011;41041;43.162;20.538;2022-11-09T20:14:44;59.53;;;30.48;;
55150;SDS011;41041;43.162;20.538;2022-11-09T20:17:10;53.22;;;27.67;;
